sensor_id;sensor_type;location;lat;lon;timestamp;pressure;altitude;pressure_sealevel;temperature;humidity
55347;BME280;41218;55.700;38.270;2023-07-13T00:04:10;98904.44;;;13.23;66.46
55347;BME280;41218;55.700;38.270;2023-07-13T00:09:12;98906.44;;;13.30;66.55
55347;BME280;41218;55.700;38.270;2023-07-13T00:14:13;98902.84;;;13.30;66.44
55347;BME280;41218;55.700;38.270;2023-07-13T00:19:15;98889.78;;;13.23;66.17
55347;BME280;41218;55.700;38.270;2023-07-13T00:24:18;98899.28;;;13.29;66.34
55347;BME280;41218;55.700;38.270;2023-07-13T00:29:25;98900.88;;;13.27;66.43
55347;BME280;41218;55.700;38.270;2023-07-13T00:34:26;98904.84;;;13.26;66.56
55347;BME280;41218;55.700;38.270;2023-07-13T00:39:27;98894.97;;;13.21;66.61
55347;BME280;41218;55.700;38.270;2023-07-13T00:44:27;98912.00;;;13.19;66.65
55347;BME280;41218;55.700;38.270;2023-07-13T00:49:30;98902.91;;;13.19;66.88
55347;BME280;41218;55.700;38.270;2023-07-13T00:54:36;98909.22;;;13.23;66.90
55347;BME280;41218;55.700;38.270;2023-07-13T00:59:39;98894.59;;;13.15;67.25
55347;BME280;41218;55.700;38.270;2023-07-13T01:04:41;98898.13;;;13.19;67.10
55347;BME280;41218;55.700;38.270;2023-07-13T01:09:44;98895.38;;;13.19;66.93
55347;BME280;41218;55.700;38.270;2023-07-13T01:14:45;98892.97;;;13.21;66.88
55347;BME280;41218;55.700;38.270;2023-07-13T01:19:46;98891.78;;;13.22;66.68
55347;BME280;41218;55.700;38.270;2023-07-13T01:24:47;98887.03;;;13.23;67.00
55347;BME280;41218;55.700;38.270;2023-07-13T01:29:48;98893.78;;;13.22;67.04
55347;BME280;41218;55.700;38.270;2023-07-13T01:34:54;98872.44;;;13.12;67.49
55347;BME280;41218;55.700;38.270;2023-07-13T01:39:54;98886.25;;;13.19;66.97
55347;BME280;41218;55.700;38.270;2023-07-13T01:44:55;98880.72;;;13.19;67.10
55347;BME280;41218;55.700;38.270;2023-07-13T01:49:55;98884.25;;;13.19;67.11
55347;BME280;41218;55.700;38.270;2023-07-13T01:54:56;98880.31;;;13.20;67.13
55347;BME280;41218;55.700;38.270;2023-07-13T01:59:56;98877.53;;;13.20;66.99
55347;BME280;41218;55.700;38.270;2023-07-13T02:04:57;98881.09;;;13.21;67.03
55347;BME280;41218;55.700;38.270;2023-07-13T02:09:57;98875.94;;;13.19;67.22
55347;BME280;41218;55.700;38.270;2023-07-13T02:14:58;98882.31;;;13.20;67.22
55347;BME280;41218;55.700;38.270;2023-07-13T02:19:58;98871.59;;;13.18;67.44
55347;BME280;41218;55.700;38.270;2023-07-13T02:24:59;98868.44;;;13.16;67.35
55347;BME280;41218;55.700;38.270;2023-07-13T02:30:00;98866.41;;;13.24;67.67
55347;BME280;41218;55.700;38.270;2023-07-13T02:35:00;98867.19;;;13.25;67.67
55347;BME280;41218;55.700;38.270;2023-07-13T02:40:01;98869.19;;;13.24;67.63
55347;BME280;41218;55.700;38.270;2023-07-13T02:45:08;98875.91;;;13.27;67.47
55347;BME280;41218;55.700;38.270;2023-07-13T02:50:09;98873.84;;;13.38;67.64
55347;BME280;41218;55.700;38.270;2023-07-13T02:55:10;98862.78;;;13.34;67.54
55347;BME280;41218;55.700;38.270;2023-07-13T03:00:10;98854.88;;;13.26;67.58
55347;BME280;41218;55.700;38.270;2023-07-13T03:05:11;98868.34;;;13.34;67.57
55347;BME280;41218;55.700;38.270;2023-07-13T03:10:12;98858.31;;;13.44;67.77
55347;BME280;41218;55.700;38.270;2023-07-13T03:15:13;98854.47;;;13.34;67.48
55347;BME280;41218;55.700;38.270;2023-07-13T03:20:14;98857.19;;;13.38;67.59
55347;BME280;41218;55.700;38.270;2023-07-13T03:25:14;98861.53;;;13.42;67.61
55347;BME280;41218;55.700;38.270;2023-07-13T03:30:15;98857.59;;;13.36;67.74
55347;BME280;41218;55.700;38.270;2023-07-13T03:35:15;98869.03;;;13.42;68.00
55347;BME280;41218;55.700;38.270;2023-07-13T03:40:16;98872.94;;;13.48;68.08
55347;BME280;41218;55.700;38.270;2023-07-13T03:45:17;98865.38;;;13.52;68.12
55347;BME280;41218;55.700;38.270;2023-07-13T03:50:17;98863.81;;;13.51;68.01
55347;BME280;41218;55.700;38.270;2023-07-13T03:55:18;98862.56;;;13.56;68.31
55347;BME280;41218;55.700;38.270;2023-07-13T04:00:19;98871.66;;;13.60;68.45
55347;BME280;41218;55.700;38.270;2023-07-13T04:05:19;98864.16;;;13.57;68.32
55347;BME280;41218;55.700;38.270;2023-07-13T04:10:20;98870.84;;;13.63;68.76
55347;BME280;41218;55.700;38.270;2023-07-13T04:15:21;98880.28;;;13.69;69.03
55347;BME280;41218;55.700;38.270;2023-07-13T04:20:21;98865.25;;;13.67;68.92
55347;BME280;41218;55.700;38.270;2023-07-13T04:25:22;98876.28;;;13.74;68.88
55347;BME280;41218;55.700;38.270;2023-07-13T04:30:23;98869.09;;;13.76;69.05
55347;BME280;41218;55.700;38.270;2023-07-13T04:35:23;98882.16;;;13.79;69.43
55347;BME280;41218;55.700;38.270;2023-07-13T04:40:27;98876.63;;;13.79;69.63
55347;BME280;41218;55.700;38.270;2023-07-13T04:45:28;98873.06;;;13.79;69.22
55347;BME280;41218;55.700;38.270;2023-07-13T04:50:28;98876.22;;;13.81;69.49
55347;BME280;41218;55.700;38.270;2023-07-13T04:55:29;98862.69;;;13.83;69.44
55347;BME280;41218;55.700;38.270;2023-07-13T05:00:31;98875.72;;;13.90;69.52
55347;BME280;41218;55.700;38.270;2023-07-13T05:05:31;98883.56;;;13.95;69.66
55347;BME280;41218;55.700;38.270;2023-07-13T05:10:32;98890.69;;;13.99;69.84
55347;BME280;41218;55.700;38.270;2023-07-13T05:15:33;98890.19;;;14.08;70.21
55347;BME280;41218;55.700;38.270;2023-07-13T05:20:34;98884.97;;;14.14;69.56
55347;BME280;41218;55.700;38.270;2023-07-13T05:25:34;98889.59;;;14.24;69.47
55347;BME280;41218;55.700;38.270;2023-07-13T05:30:35;98860.22;;;14.23;69.61
55347;BME280;41218;55.700;38.270;2023-07-13T05:35:36;98858.47;;;14.36;69.47
55347;BME280;41218;55.700;38.270;2023-07-13T05:40:37;98875.91;;;14.40;69.72
55347;BME280;41218;55.700;38.270;2023-07-13T05:45:38;98880.16;;;14.49;69.70
55347;BME280;41218;55.700;38.270;2023-07-13T05:50:38;98883.69;;;14.53;69.74
55347;BME280;41218;55.700;38.270;2023-07-13T05:55:46;98888.34;;;14.63;70.44
55347;BME280;41218;55.700;38.270;2023-07-13T06:00:59;98878.28;;;14.73;70.62
55347;BME280;41218;55.700;38.270;2023-07-13T06:06:00;98872.19;;;14.81;69.73
55347;BME280;41218;55.700;38.270;2023-07-13T06:11:10;98882.31;;;14.95;70.29
55347;BME280;41218;55.700;38.270;2023-07-13T06:16:13;98871.81;;;15.07;69.50
55347;BME280;41218;55.700;38.270;2023-07-13T06:21:17;98859.00;;;15.13;69.50
55347;BME280;41218;55.700;38.270;2023-07-13T06:26:19;98857.59;;;15.25;69.46
55347;BME280;41218;55.700;38.270;2023-07-13T06:31:20;98852.28;;;15.34;69.10
55347;BME280;41218;55.700;38.270;2023-07-13T06:36:20;98856.81;;;15.48;68.87
55347;BME280;41218;55.700;38.270;2023-07-13T06:41:21;98842.88;;;15.48;68.85
55347;BME280;41218;55.700;38.270;2023-07-13T06:46:22;98856.97;;;15.60;68.83
55347;BME280;41218;55.700;38.270;2023-07-13T06:51:23;98847.47;;;15.58;68.54
55347;BME280;41218;55.700;38.270;2023-07-13T06:56:23;98827.63;;;15.56;68.62
55347;BME280;41218;55.700;38.270;2023-07-13T07:01:24;98835.03;;;15.62;68.40
55347;BME280;41218;55.700;38.270;2023-07-13T07:06:24;98829.84;;;15.65;68.41
55347;BME280;41218;55.700;38.270;2023-07-13T07:11:25;98834.13;;;15.69;68.40
55347;BME280;41218;55.700;38.270;2023-07-13T07:16:26;98842.03;;;15.74;68.28
55347;BME280;41218;55.700;38.270;2023-07-13T07:21:27;98842.31;;;15.80;68.23
55347;BME280;41218;55.700;38.270;2023-07-13T07:26:27;98840.25;;;15.84;68.10
55347;BME280;41218;55.700;38.270;2023-07-13T07:31:28;98851.47;;;16.00;67.98
55347;BME280;41218;55.700;38.270;2023-07-13T07:36:29;98865.13;;;16.15;67.69
55347;BME280;41218;55.700;38.270;2023-07-13T07:41:29;98860.19;;;16.22;67.31
55347;BME280;41218;55.700;38.270;2023-07-13T07:46:30;98858.03;;;16.30;67.22
55347;BME280;41218;55.700;38.270;2023-07-13T07:51:30;98862.31;;;16.35;67.22
55347;BME280;41218;55.700;38.270;2023-07-13T07:56:32;98864.59;;;16.40;67.15
55347;BME280;41218;55.700;38.270;2023-07-13T08:01:32;98868.19;;;16.40;66.88
55347;BME280;41218;55.700;38.270;2023-07-13T08:06:33;98859.19;;;16.33;67.24
55347;BME280;41218;55.700;38.270;2023-07-13T08:11:34;98869.03;;;16.37;67.22
55347;BME280;41218;55.700;38.270;2023-07-13T08:16:34;98880.91;;;16.41;67.52
55347;BME280;41218;55.700;38.270;2023-07-13T08:21:35;98880.59;;;16.56;67.34
55347;BME280;41218;55.700;38.270;2023-07-13T08:26:35;98883.91;;;16.51;67.46
55347;BME280;41218;55.700;38.270;2023-07-13T08:31:36;98886.81;;;16.63;67.45
55347;BME280;41218;55.700;38.270;2023-07-13T08:36:36;98879.94;;;16.48;67.73
55347;BME280;41218;55.700;38.270;2023-07-13T08:41:37;98883.19;;;16.47;67.95
55347;BME280;41218;55.700;38.270;2023-07-13T08:46:40;98884.41;;;16.46;68.50
55347;BME280;41218;55.700;38.270;2023-07-13T08:51:51;98885.16;;;16.46;69.07
55347;BME280;41218;55.700;38.270;2023-07-13T08:56:55;98885.63;;;16.45;68.90
55347;BME280;41218;55.700;38.270;2023-07-13T09:02:20;98885.63;;;16.45;69.05
55347;BME280;41218;55.700;38.270;2023-07-13T09:07:33;98846.97;;;16.27;69.29
55347;BME280;41218;55.700;38.270;2023-07-13T09:18:29;98882.66;;;16.52;69.60
55347;BME280;41218;55.700;38.270;2023-07-13T09:23:31;98887.47;;;16.51;69.19
55347;BME280;41218;55.700;38.270;2023-07-13T09:28:45;98876.09;;;16.42;70.12
55347;BME280;41218;55.700;38.270;2023-07-13T09:33:46;98865.09;;;16.35;69.46
55347;BME280;41218;55.700;38.270;2023-07-13T09:38:49;98854.72;;;16.35;69.45
55347;BME280;41218;55.700;38.270;2023-07-13T09:49:11;98841.84;;;16.41;69.57
55347;BME280;41218;55.700;38.270;2023-07-13T09:54:19;98878.84;;;16.62;69.59
55347;BME280;41218;55.700;38.270;2023-07-13T09:59:22;98880.31;;;16.50;69.29
55347;BME280;41218;55.700;38.270;2023-07-13T10:04:36;98875.84;;;16.36;69.69
55347;BME280;41218;55.700;38.270;2023-07-13T10:09:39;98865.91;;;16.15;68.84
55347;BME280;41218;55.700;38.270;2023-07-13T10:14:41;98891.69;;;16.19;68.81
55347;BME280;41218;55.700;38.270;2023-07-13T10:19:42;98868.56;;;16.02;69.01
55347;BME280;41218;55.700;38.270;2023-07-13T10:24:45;98886.34;;;16.09;69.27
55347;BME280;41218;55.700;38.270;2023-07-13T10:29:48;98850.69;;;16.00;69.13
55347;BME280;41218;55.700;38.270;2023-07-13T10:34:51;98836.47;;;15.94;69.43
55347;BME280;41218;55.700;38.270;2023-07-13T10:39:54;98847.81;;;16.03;69.27
55347;BME280;41218;55.700;38.270;2023-07-13T10:44:55;98857.19;;;16.13;68.86
55347;BME280;41218;55.700;38.270;2023-07-13T10:49:57;98879.72;;;16.22;68.99
55347;BME280;41218;55.700;38.270;2023-07-13T10:55:02;98857.41;;;16.02;69.26
55347;BME280;41218;55.700;38.270;2023-07-13T11:05:29;98907.00;;;16.11;69.27
55347;BME280;41218;55.700;38.270;2023-07-13T11:15:52;98905.53;;;15.83;69.16
55347;BME280;41218;55.700;38.270;2023-07-13T11:21:13;98921.91;;;15.81;69.39
55347;BME280;41218;55.700;38.270;2023-07-13T11:31:56;98918.84;;;15.48;69.59
55347;BME280;41218;55.700;38.270;2023-07-13T11:36:58;98923.69;;;15.44;69.79
55347;BME280;41218;55.700;38.270;2023-07-13T11:42:02;98922.59;;;15.38;69.85
55347;BME280;41218;55.700;38.270;2023-07-13T11:47:17;98923.81;;;15.37;69.85
55347;BME280;41218;55.700;38.270;2023-07-13T11:52:31;98911.97;;;15.33;69.92
55347;BME280;41218;55.700;38.270;2023-07-13T11:57:44;98916.72;;;15.32;69.73
55347;BME280;41218;55.700;38.270;2023-07-13T12:02:48;98918.78;;;15.28;69.49
55347;BME280;41218;55.700;38.270;2023-07-13T12:07:51;98925.19;;;15.25;69.52
55347;BME280;41218;55.700;38.270;2023-07-13T12:13:00;98916.94;;;15.18;69.96
55347;BME280;41218;55.700;38.270;2023-07-13T12:18:01;98909.13;;;15.09;69.82
55347;BME280;41218;55.700;38.270;2023-07-13T12:23:05;98922.16;;;15.16;70.03
55347;BME280;41218;55.700;38.270;2023-07-13T12:28:30;98920.16;;;15.16;70.29
55347;BME280;41218;55.700;38.270;2023-07-13T12:33:33;98913.13;;;15.08;69.76
55347;BME280;41218;55.700;38.270;2023-07-13T12:38:34;98914.66;;;15.13;70.06
55347;BME280;41218;55.700;38.270;2023-07-13T12:43:36;98910.59;;;15.17;69.97
55347;BME280;41218;55.700;38.270;2023-07-13T12:48:41;98906.19;;;15.20;70.06
55347;BME280;41218;55.700;38.270;2023-07-13T12:53:48;98901.47;;;15.17;70.05
55347;BME280;41218;55.700;38.270;2023-07-13T12:58:50;98904.63;;;15.19;70.12
55347;BME280;41218;55.700;38.270;2023-07-13T13:03:55;98899.88;;;15.16;70.07
55347;BME280;41218;55.700;38.270;2023-07-13T13:08:58;98889.25;;;15.11;70.26
55347;BME280;41218;55.700;38.270;2023-07-13T13:13:59;98900.75;;;15.13;70.24
55347;BME280;41218;55.700;38.270;2023-07-13T13:19:15;98894.38;;;15.12;70.85
55347;BME280;41218;55.700;38.270;2023-07-13T13:24:18;98893.13;;;15.17;70.52
55347;BME280;41218;55.700;38.270;2023-07-13T13:29:22;98901.09;;;15.15;70.82
55347;BME280;41218;55.700;38.270;2023-07-13T13:34:25;98889.66;;;15.09;70.54
55347;BME280;41218;55.700;38.270;2023-07-13T13:39:36;98893.53;;;15.15;70.70
55347;BME280;41218;55.700;38.270;2023-07-13T13:44:37;98889.28;;;15.07;70.45
55347;BME280;41218;55.700;38.270;2023-07-13T13:49:37;98875.84;;;15.02;70.54
55347;BME280;41218;55.700;38.270;2023-07-13T13:54:38;98890.22;;;15.24;70.49
55347;BME280;41218;55.700;38.270;2023-07-13T13:59:39;98867.03;;;15.07;70.16
55347;BME280;41218;55.700;38.270;2023-07-13T14:04:43;98832.44;;;14.81;70.64
55347;BME280;41218;55.700;38.270;2023-07-13T14:09:45;98839.13;;;14.87;70.66
55347;BME280;41218;55.700;38.270;2023-07-13T14:14:46;98832.81;;;14.83;70.59
55347;BME280;41218;55.700;38.270;2023-07-13T14:19:46;98871.81;;;15.07;70.80
55347;BME280;41218;55.700;38.270;2023-07-13T14:24:47;98844.09;;;14.99;70.62
55347;BME280;41218;55.700;38.270;2023-07-13T14:29:48;98872.19;;;15.09;70.83
55347;BME280;41218;55.700;38.270;2023-07-13T14:34:48;98854.06;;;14.97;70.94
55347;BME280;41218;55.700;38.270;2023-07-13T14:39:50;98864.41;;;14.96;71.17
55347;BME280;41218;55.700;38.270;2023-07-13T14:44:52;98863.69;;;14.92;70.78
55347;BME280;41218;55.700;38.270;2023-07-13T14:49:52;98867.63;;;14.95;71.11
55347;BME280;41218;55.700;38.270;2023-07-13T14:54:53;98865.25;;;14.93;71.35
55347;BME280;41218;55.700;38.270;2023-07-13T14:59:54;98853.84;;;14.84;71.12
55347;BME280;41218;55.700;38.270;2023-07-13T15:04:54;98871.22;;;14.92;71.18
55347;BME280;41218;55.700;38.270;2023-07-13T15:09:55;98850.97;;;14.91;71.25
55347;BME280;41218;55.700;38.270;2023-07-13T15:14:55;98848.28;;;14.84;71.17
55347;BME280;41218;55.700;38.270;2023-07-13T15:19:56;98848.72;;;14.82;71.38
55347;BME280;41218;55.700;38.270;2023-07-13T15:24:57;98867.31;;;14.89;71.46
55347;BME280;41218;55.700;38.270;2023-07-13T15:29:57;98867.34;;;14.86;71.49
55347;BME280;41218;55.700;38.270;2023-07-13T15:34:58;98850.66;;;14.86;71.37
55347;BME280;41218;55.700;38.270;2023-07-13T15:39:58;98855.75;;;14.91;71.32
55347;BME280;41218;55.700;38.270;2023-07-13T15:44:59;98854.06;;;14.97;71.26
55347;BME280;41218;55.700;38.270;2023-07-13T15:50:01;98843.03;;;14.90;71.32
55347;BME280;41218;55.700;38.270;2023-07-13T15:55:03;98850.19;;;14.91;71.54
55347;BME280;41218;55.700;38.270;2023-07-13T16:00:34;98839.13;;;14.87;71.88
55347;BME280;41218;55.700;38.270;2023-07-13T16:05:33;98838.34;;;14.87;71.52
55347;BME280;41218;55.700;38.270;2023-07-13T16:10:35;98842.16;;;14.96;71.40
55347;BME280;41218;55.700;38.270;2023-07-13T16:15:39;98830.41;;;14.85;71.42
55347;BME280;41218;55.700;38.270;2023-07-13T16:20:42;98837.22;;;14.80;71.60
55347;BME280;41218;55.700;38.270;2023-07-13T16:25:43;98832.88;;;14.79;71.93
55347;BME280;41218;55.700;38.270;2023-07-13T16:30:46;98828.03;;;14.83;71.85
55347;BME280;41218;55.700;38.270;2023-07-13T16:35:47;98831.59;;;14.84;72.19
55347;BME280;41218;55.700;38.270;2023-07-13T16:40:48;98823.69;;;14.82;71.86
55347;BME280;41218;55.700;38.270;2023-07-13T16:45:49;98819.28;;;14.85;71.83
55347;BME280;41218;55.700;38.270;2023-07-13T16:50:53;98813.03;;;14.77;71.78
55347;BME280;41218;55.700;38.270;2023-07-13T16:55:56;98823.69;;;14.82;71.74
55347;BME280;41218;55.700;38.270;2023-07-13T17:00:57;98828.41;;;14.86;71.97
55347;BME280;41218;55.700;38.270;2023-07-13T17:05:58;98824.84;;;14.85;72.03
55347;BME280;41218;55.700;38.270;2023-07-13T17:11:01;98816.53;;;14.81;71.99
55347;BME280;41218;55.700;38.270;2023-07-13T17:16:01;98823.69;;;14.82;71.78
55347;BME280;41218;55.700;38.270;2023-07-13T17:21:04;98831.53;;;14.88;71.81
55347;BME280;41218;55.700;38.270;2023-07-13T17:26:05;98830.34;;;14.89;71.80
55347;BME280;41218;55.700;38.270;2023-07-13T17:31:05;98830.34;;;14.89;71.85
55347;BME280;41218;55.700;38.270;2023-07-13T17:36:13;98827.16;;;14.90;71.89
55347;BME280;41218;55.700;38.270;2023-07-13T17:41:14;98822.41;;;14.87;71.62
55347;BME280;41218;55.700;38.270;2023-07-13T17:46:27;98828.72;;;14.91;71.72
55347;BME280;41218;55.700;38.270;2023-07-13T17:51:28;98836.34;;;14.87;71.97
55347;BME280;41218;55.700;38.270;2023-07-13T17:56:29;98816.50;;;14.85;71.81
55347;BME280;41218;55.700;38.270;2023-07-13T18:01:34;98826.34;;;14.90;71.64
55347;BME280;41218;55.700;38.270;2023-07-13T18:06:42;98836.69;;;14.89;71.71
55347;BME280;41218;55.700;38.270;2023-07-13T18:11:53;98830.34;;;14.89;71.84
55347;BME280;41218;55.700;38.270;2023-07-13T18:16:58;98835.53;;;14.87;71.58
55347;BME280;41218;55.700;38.270;2023-07-13T18:22:05;98835.91;;;14.89;71.85
55347;BME280;41218;55.700;38.270;2023-07-13T18:27:10;98841.06;;;14.90;71.96
55347;BME280;41218;55.700;38.270;2023-07-13T18:32:17;98825.25;;;14.83;72.16
55347;BME280;41218;55.700;38.270;2023-07-13T18:37:21;98849.09;;;14.85;71.81
55347;BME280;41218;55.700;38.270;2023-07-13T18:42:23;98843.53;;;14.85;72.18
55347;BME280;41218;55.700;38.270;2023-07-13T18:47:25;98825.78;;;14.75;72.24
55347;BME280;41218;55.700;38.270;2023-07-13T18:52:29;98821.75;;;14.79;72.30
55347;BME280;41218;55.700;38.270;2023-07-13T18:57:30;98819.31;;;14.81;72.51
55347;BME280;41218;55.700;38.270;2023-07-13T19:02:31;98826.84;;;14.85;72.19
55347;BME280;41218;55.700;38.270;2023-07-13T19:07:32;98819.31;;;14.81;72.32
55347;BME280;41218;55.700;38.270;2023-07-13T19:12:34;98821.38;;;14.77;72.50
55347;BME280;41218;55.700;38.270;2023-07-13T19:17:35;98820.78;;;14.90;72.48
55347;BME280;41218;55.700;38.270;2023-07-13T19:22:36;98821.00;;;14.75;72.51
55347;BME280;41218;55.700;38.270;2023-07-13T19:27:38;98839.34;;;14.73;72.86
55347;BME280;41218;55.700;38.270;2023-07-13T19:32:40;98817.66;;;14.60;73.47
55347;BME280;41218;55.700;38.270;2023-07-13T19:37:42;98833.41;;;14.71;72.95
55347;BME280;41218;55.700;38.270;2023-07-13T19:42:42;98843.53;;;14.85;72.93
55347;BME280;41218;55.700;38.270;2023-07-13T19:47:43;98845.22;;;14.78;72.92
55347;BME280;41218;55.700;38.270;2023-07-13T19:52:53;98850.03;;;14.74;73.77
55347;BME280;41218;55.700;38.270;2023-07-13T19:57:57;98842.53;;;14.71;73.62
55347;BME280;41218;55.700;38.270;2023-07-13T20:02:57;98845.25;;;14.75;73.27
55347;BME280;41218;55.700;38.270;2023-07-13T20:07:59;98860.72;;;14.76;73.60
55347;BME280;41218;55.700;38.270;2023-07-13T20:13:00;98862.78;;;14.72;73.94
55347;BME280;41218;55.700;38.270;2023-07-13T20:18:01;98869.88;;;14.76;73.68
55347;BME280;41218;55.700;38.270;2023-07-13T20:28:11;98861.94;;;14.75;73.84
55347;BME280;41218;55.700;38.270;2023-07-13T20:33:17;98874.63;;;14.76;73.72
55347;BME280;41218;55.700;38.270;2023-07-13T20:38:19;98860.06;;;14.68;73.72
55347;BME280;41218;55.700;38.270;2023-07-13T20:43:19;98876.91;;;14.85;73.55
55347;BME280;41218;55.700;38.270;2023-07-13T20:53:33;98873.16;;;14.68;73.98
55347;BME280;41218;55.700;38.270;2023-07-13T20:58:33;98877.16;;;14.67;73.74
55347;BME280;41218;55.700;38.270;2023-07-13T21:03:34;98860.16;;;14.61;73.76
55347;BME280;41218;55.700;38.270;2023-07-13T21:08:34;98860.16;;;14.61;73.89
55347;BME280;41218;55.700;38.270;2023-07-13T21:13:35;98862.91;;;14.65;73.66
55347;BME280;41218;55.700;38.270;2023-07-13T21:18:37;98851.84;;;14.57;74.13
55347;BME280;41218;55.700;38.270;2023-07-13T21:23:38;98865.72;;;14.61;73.76
55347;BME280;41218;55.700;38.270;2023-07-13T21:28:41;98878.44;;;14.62;74.12
55347;BME280;41218;55.700;38.270;2023-07-13T21:33:42;98867.72;;;14.60;73.98
55347;BME280;41218;55.700;38.270;2023-07-13T21:38:43;98872.78;;;14.66;73.57
55347;BME280;41218;55.700;38.270;2023-07-13T21:43:45;98860.16;;;14.61;73.69
55347;BME280;41218;55.700;38.270;2023-07-13T21:48:45;98867.19;;;14.69;73.75
55347;BME280;41218;55.700;38.270;2023-07-13T21:53:47;98872.34;;;14.71;73.85
55347;BME280;41218;55.700;38.270;2023-07-13T21:58:48;98860.47;;;14.67;73.67
55347;BME280;41218;55.700;38.270;2023-07-13T22:03:56;98858.44;;;14.71;74.06
55347;BME280;41218;55.700;38.270;2023-07-13T22:08:57;98864.41;;;14.69;73.66
55347;BME280;41218;55.700;38.270;2023-07-13T22:13:58;98853.41;;;14.62;73.99
55347;BME280;41218;55.700;38.270;2023-07-13T22:19:00;98858.97;;;14.62;73.71
55347;BME280;41218;55.700;38.270;2023-07-13T22:24:02;98871.25;;;14.65;73.67
55347;BME280;41218;55.700;38.270;2023-07-13T22:29:11;98864.94;;;14.60;74.37
55347;BME280;41218;55.700;38.270;2023-07-13T22:34:14;98855.88;;;14.53;74.02
55347;BME280;41218;55.700;38.270;2023-07-13T22:39:23;98857.00;;;14.59;73.98
55347;BME280;41218;55.700;38.270;2023-07-13T22:44:26;98861.38;;;14.60;73.91
55347;BME280;41218;55.700;38.270;2023-07-13T22:49:28;98865.72;;;14.61;73.90
55347;BME280;41218;55.700;38.270;2023-07-13T22:54:30;98867.69;;;14.64;73.95
55347;BME280;41218;55.700;38.270;2023-07-13T22:59:31;98859.38;;;14.60;73.77
55347;BME280;41218;55.700;38.270;2023-07-13T23:04:35;98855.81;;;14.60;73.99
55347;BME280;41218;55.700;38.270;2023-07-13T23:09:38;98865.25;;;14.66;73.86
55347;BME280;41218;55.700;38.270;2023-07-13T23:14:40;98868.81;;;14.67;73.83
55347;BME280;41218;55.700;38.270;2023-07-13T23:19:41;98858.13;;;14.65;73.98
55347;BME280;41218;55.700;38.270;2023-07-13T23:24:41;98855.34;;;14.65;73.79
55347;BME280;41218;55.700;38.270;2023-07-13T23:29:42;98848.66;;;14.59;73.88
55347;BME280;41218;55.700;38.270;2023-07-13T23:34:42;98847.84;;;14.62;73.52
55347;BME280;41218;55.700;38.270;2023-07-13T23:39:44;98861.41;;;14.56;73.95
55347;BME280;41218;55.700;38.270;2023-07-13T23:44:45;98847.53;;;14.56;73.90
55347;BME280;41218;55.700;38.270;2023-07-13T23:49:45;98841.53;;;14.58;73.78
55347;BME280;41218;55.700;38.270;2023-07-13T23:54:46;98845.84;;;14.62;74.04
55347;BME280;41218;55.700;38.270;2023-07-13T23:59:46;98853.78;;;14.64;73.70
